sensor_id;sensor_type;location;lat;lon;timestamp;pressure;altitude;pressure_sealevel;temperature;humidity
25944;BME280;13742;49.306;8.636;2023-02-18T00:00:37;101419.72;;;12.10;94.50
25944;BME280;13742;49.306;8.636;2023-02-18T00:01:37;101417.65;;;12.09;94.48
25944;BME280;13742;49.306;8.636;2023-02-18T00:02:37;101421.51;;;12.08;94.35
25944;BME280;13742;49.306;8.636;2023-02-18T00:03:41;101416.98;;;12.09;94.40
25944;BME280;13742;49.306;8.636;2023-02-18T00:04:37;101420.33;;;12.09;94.32
25944;BME280;13742;49.306;8.636;2023-02-18T00:05:37;101420.05;;;12.09;94.37
25944;BME280;13742;49.306;8.636;2023-02-18T00:06:37;101420.44;;;12.09;94.24
25944;BME280;13742;49.306;8.636;2023-02-18T00:07:38;101414.89;;;12.08;94.27
25944;BME280;13742;49.306;8.636;2023-02-18T00:08:37;101414.77;;;12.08;94.23
25944;BME280;13742;49.306;8.636;2023-02-18T00:09:37;101414.23;;;12.07;94.31
25944;BME280;13742;49.306;8.636;2023-02-18T00:10:39;101405.98;;;12.06;94.28
25944;BME280;13742;49.306;8.636;2023-02-18T00:11:37;101409.72;;;12.07;94.32
25944;BME280;13742;49.306;8.636;2023-02-18T00:12:37;101408.85;;;12.06;94.43
25944;BME280;13742;49.306;8.636;2023-02-18T00:13:37;101408.11;;;12.06;94.34
25944;BME280;13742;49.306;8.636;2023-02-18T00:14:37;101408.61;;;12.06;94.52
25944;BME280;13742;49.306;8.636;2023-02-18T00:15:37;101406.62;;;12.06;94.43
25944;BME280;13742;49.306;8.636;2023-02-18T00:16:37;101403.36;;;12.05;94.46
25944;BME280;13742;49.306;8.636;2023-02-18T00:17:37;101406.61;;;12.05;94.51
25944;BME280;13742;49.306;8.636;2023-02-18T00:18:37;101402.83;;;12.04;94.59
25944;BME280;13742;49.306;8.636;2023-02-18T00:19:37;101402.72;;;12.05;94.54
25944;BME280;13742;49.306;8.636;2023-02-18T00:20:38;101401.45;;;12.04;94.64
25944;BME280;13742;49.306;8.636;2023-02-18T00:21:37;101400.73;;;12.05;94.49
25944;BME280;13742;49.306;8.636;2023-02-18T00:22:37;101394.69;;;12.04;94.49
25944;BME280;13742;49.306;8.636;2023-02-18T00:23:37;101400.57;;;12.05;94.60
25944;BME280;13742;49.306;8.636;2023-02-18T00:24:37;101400.23;;;12.04;94.49
25944;BME280;13742;49.306;8.636;2023-02-18T00:25:37;101400.89;;;12.04;94.63
25944;BME280;13742;49.306;8.636;2023-02-18T00:26:37;101396.23;;;12.03;94.63
25944;BME280;13742;49.306;8.636;2023-02-18T00:27:37;101402.38;;;12.04;94.60
25944;BME280;13742;49.306;8.636;2023-02-18T00:28:37;101405.17;;;12.03;94.63
25944;BME280;13742;49.306;8.636;2023-02-18T00:29:37;101405.97;;;12.04;94.58
25944;BME280;13742;49.306;8.636;2023-02-18T00:30:40;101413.80;;;12.04;94.55
25944;BME280;13742;49.306;8.636;2023-02-18T00:31:37;101412.78;;;12.03;94.59
25944;BME280;13742;49.306;8.636;2023-02-18T00:32:37;101413.45;;;12.03;94.67
25944;BME280;13742;49.306;8.636;2023-02-18T00:33:37;101408.75;;;12.03;94.65
25944;BME280;13742;49.306;8.636;2023-02-18T00:34:37;101409.28;;;12.04;94.68
25944;BME280;13742;49.306;8.636;2023-02-18T00:35:37;101410.72;;;12.04;94.64
25944;BME280;13742;49.306;8.636;2023-02-18T00:36:37;101410.27;;;12.04;94.61
25944;BME280;13742;49.306;8.636;2023-02-18T00:37:37;101408.67;;;12.04;94.61
25944;BME280;13742;49.306;8.636;2023-02-18T00:38:37;101407.30;;;12.04;94.51
25944;BME280;13742;49.306;8.636;2023-02-18T00:39:37;101405.78;;;12.04;94.62
25944;BME280;13742;49.306;8.636;2023-02-18T00:40:37;101404.11;;;12.03;94.70
25944;BME280;13742;49.306;8.636;2023-02-18T00:41:37;101404.45;;;12.03;94.62
25944;BME280;13742;49.306;8.636;2023-02-18T00:42:37;101398.23;;;12.03;94.79
25944;BME280;13742;49.306;8.636;2023-02-18T00:43:37;101395.95;;;12.02;94.78
25944;BME280;13742;49.306;8.636;2023-02-18T00:44:37;101393.62;;;12.01;94.90
25944;BME280;13742;49.306;8.636;2023-02-18T00:45:37;101391.81;;;12.02;95.00
25944;BME280;13742;49.306;8.636;2023-02-18T00:46:37;101386.05;;;12.02;94.96
25944;BME280;13742;49.306;8.636;2023-02-18T00:47:37;101387.67;;;12.03;94.95
25944;BME280;13742;49.306;8.636;2023-02-18T00:48:37;101383.78;;;12.02;95.04
25944;BME280;13742;49.306;8.636;2023-02-18T00:49:37;101386.63;;;12.03;95.27
25944;BME280;13742;49.306;8.636;2023-02-18T00:50:37;101389.11;;;12.03;95.17
25944;BME280;13742;49.306;8.636;2023-02-18T00:51:37;101387.75;;;12.02;95.26
25944;BME280;13742;49.306;8.636;2023-02-18T00:52:37;101395.13;;;12.03;95.49
25944;BME280;13742;49.306;8.636;2023-02-18T00:53:37;101392.28;;;12.03;95.49
25944;BME280;13742;49.306;8.636;2023-02-18T00:54:37;101391.53;;;12.02;95.54
25944;BME280;13742;49.306;8.636;2023-02-18T00:55:41;101391.53;;;12.02;95.65
25944;BME280;13742;49.306;8.636;2023-02-18T00:56:37;101395.76;;;12.03;95.55
25944;BME280;13742;49.306;8.636;2023-02-18T00:57:37;101397.08;;;12.03;95.63
25944;BME280;13742;49.306;8.636;2023-02-18T00:58:37;101391.56;;;12.02;95.59
25944;BME280;13742;49.306;8.636;2023-02-18T00:59:37;101399.76;;;12.03;95.83
25944;BME280;13742;49.306;8.636;2023-02-18T01:00:37;101395.78;;;12.02;95.60
25944;BME280;13742;49.306;8.636;2023-02-18T01:01:37;101396.28;;;12.02;95.78
25944;BME280;13742;49.306;8.636;2023-02-18T01:02:37;101399.50;;;12.02;95.73
25944;BME280;13742;49.306;8.636;2023-02-18T01:03:37;101395.01;;;12.03;95.72
25944;BME280;13742;49.306;8.636;2023-02-18T01:04:37;101396.67;;;12.04;95.85
25944;BME280;13742;49.306;8.636;2023-02-18T01:05:37;101396.59;;;12.03;95.86
25944;BME280;13742;49.306;8.636;2023-02-18T01:06:37;101396.99;;;12.02;95.78
25944;BME280;13742;49.306;8.636;2023-02-18T01:07:37;101395.36;;;12.02;96.00
25944;BME280;13742;49.306;8.636;2023-02-18T01:08:38;101398.98;;;12.03;95.97
25944;BME280;13742;49.306;8.636;2023-02-18T01:09:37;101403.45;;;12.03;95.99
25944;BME280;13742;49.306;8.636;2023-02-18T01:10:40;101402.91;;;12.03;96.10
25944;BME280;13742;49.306;8.636;2023-02-18T01:11:37;101403.97;;;12.02;95.99
25944;BME280;13742;49.306;8.636;2023-02-18T01:12:37;101405.30;;;12.02;95.99
25944;BME280;13742;49.306;8.636;2023-02-18T01:13:37;101400.91;;;12.02;96.10
25944;BME280;13742;49.306;8.636;2023-02-18T01:14:37;101399.73;;;12.03;96.24
25944;BME280;13742;49.306;8.636;2023-02-18T01:15:37;101389.52;;;12.02;96.18
25944;BME280;13742;49.306;8.636;2023-02-18T01:16:37;101391.62;;;12.03;96.27
25944;BME280;13742;49.306;8.636;2023-02-18T01:17:37;101391.70;;;12.03;96.24
25944;BME280;13742;49.306;8.636;2023-02-18T01:18:38;101390.13;;;12.03;96.43
25944;BME280;13742;49.306;8.636;2023-02-18T01:19:37;101388.64;;;12.03;96.45
25944;BME280;13742;49.306;8.636;2023-02-18T01:20:37;101384.85;;;12.02;96.30
25944;BME280;13742;49.306;8.636;2023-02-18T01:21:37;101384.41;;;12.02;96.52
25944;BME280;13742;49.306;8.636;2023-02-18T01:22:37;101385.51;;;12.01;96.47
25944;BME280;13742;49.306;8.636;2023-02-18T01:23:38;101386.75;;;12.01;96.56
25944;BME280;13742;49.306;8.636;2023-02-18T01:24:37;101384.70;;;12.00;96.55
25944;BME280;13742;49.306;8.636;2023-02-18T01:25:37;101389.34;;;12.00;96.68
25944;BME280;13742;49.306;8.636;2023-02-18T01:26:37;101387.49;;;12.01;96.96
25944;BME280;13742;49.306;8.636;2023-02-18T01:27:37;101384.59;;;12.01;96.95
25944;BME280;13742;49.306;8.636;2023-02-18T01:28:37;101381.75;;;12.00;96.99
25944;BME280;13742;49.306;8.636;2023-02-18T01:29:37;101381.95;;;12.01;96.99
25944;BME280;13742;49.306;8.636;2023-02-18T01:30:37;101386.31;;;12.01;96.97
25944;BME280;13742;49.306;8.636;2023-02-18T01:31:37;101389.89;;;12.01;97.20
25944;BME280;13742;49.306;8.636;2023-02-18T01:32:37;101391.47;;;12.01;97.46
25944;BME280;13742;49.306;8.636;2023-02-18T01:33:37;101391.88;;;12.01;97.62
25944;BME280;13742;49.306;8.636;2023-02-18T01:34:37;101391.83;;;12.00;97.58
25944;BME280;13742;49.306;8.636;2023-02-18T01:35:40;101389.30;;;11.99;97.50
25944;BME280;13742;49.306;8.636;2023-02-18T01:36:37;101393.45;;;12.00;97.76
25944;BME280;13742;49.306;8.636;2023-02-18T01:37:37;101393.78;;;12.00;97.75
25944;BME280;13742;49.306;8.636;2023-02-18T01:38:37;101397.64;;;12.00;97.90
25944;BME280;13742;49.306;8.636;2023-02-18T01:39:37;101397.14;;;12.00;97.94
25944;BME280;13742;49.306;8.636;2023-02-18T01:40:43;101394.69;;;12.00;97.93
25944;BME280;13742;49.306;8.636;2023-02-18T01:41:37;101399.77;;;12.00;97.92
25944;BME280;13742;49.306;8.636;2023-02-18T01:42:37;101393.66;;;12.00;97.78
25944;BME280;13742;49.306;8.636;2023-02-18T01:43:37;101394.00;;;12.00;97.80
25944;BME280;13742;49.306;8.636;2023-02-18T01:44:37;101392.61;;;11.99;97.93
25944;BME280;13742;49.306;8.636;2023-02-18T01:46:37;101386.38;;;12.00;98.02
25944;BME280;13742;49.306;8.636;2023-02-18T01:47:37;101382.19;;;11.99;98.08
25944;BME280;13742;49.306;8.636;2023-02-18T01:48:38;101380.45;;;11.99;98.04
25944;BME280;13742;49.306;8.636;2023-02-18T01:49:37;101381.25;;;12.00;98.11
25944;BME280;13742;49.306;8.636;2023-02-18T01:50:38;101381.64;;;11.99;98.08
25944;BME280;13742;49.306;8.636;2023-02-18T01:51:38;101380.36;;;11.99;98.23
25944;BME280;13742;49.306;8.636;2023-02-18T01:52:37;101380.38;;;12.00;98.21
25944;BME280;13742;49.306;8.636;2023-02-18T01:53:43;101377.78;;;12.00;98.17
25944;BME280;13742;49.306;8.636;2023-02-18T01:54:39;101380.52;;;12.01;98.15
25944;BME280;13742;49.306;8.636;2023-02-18T01:55:38;101378.80;;;12.01;98.21
25944;BME280;13742;49.306;8.636;2023-02-18T01:56:41;101379.57;;;12.00;98.23
25944;BME280;13742;49.306;8.636;2023-02-18T01:57:37;101380.05;;;12.01;98.34
25944;BME280;13742;49.306;8.636;2023-02-18T01:58:37;101380.30;;;12.01;98.19
25944;BME280;13742;49.306;8.636;2023-02-18T01:59:47;101377.87;;;12.01;98.14
25944;BME280;13742;49.306;8.636;2023-02-18T02:00:37;101375.91;;;12.01;98.03
25944;BME280;13742;49.306;8.636;2023-02-18T02:01:37;101372.98;;;12.02;97.78
25944;BME280;13742;49.306;8.636;2023-02-18T02:02:38;101376.73;;;12.01;97.74
25944;BME280;13742;49.306;8.636;2023-02-18T02:03:37;101368.63;;;12.01;97.59
25944;BME280;13742;49.306;8.636;2023-02-18T02:04:37;101371.19;;;12.01;97.30
25944;BME280;13742;49.306;8.636;2023-02-18T02:05:37;101370.29;;;12.02;97.29
25944;BME280;13742;49.306;8.636;2023-02-18T02:06:37;101371.78;;;12.02;97.10
25944;BME280;13742;49.306;8.636;2023-02-18T02:07:37;101368.02;;;12.02;96.98
25944;BME280;13742;49.306;8.636;2023-02-18T02:08:37;101369.30;;;12.02;96.67
25944;BME280;13742;49.306;8.636;2023-02-18T02:09:37;101368.96;;;12.02;96.72
25944;BME280;13742;49.306;8.636;2023-02-18T02:10:41;101365.78;;;12.01;96.72
25944;BME280;13742;49.306;8.636;2023-02-18T02:15:40;101358.19;;;12.00;96.13
25944;BME280;13742;49.306;8.636;2023-02-18T02:18:40;101361.49;;;11.99;95.87
25944;BME280;13742;49.306;8.636;2023-02-18T02:21:42;101354.54;;;11.99;95.83
25944;BME280;13742;49.306;8.636;2023-02-18T02:25:46;101356.72;;;11.98;95.57
25944;BME280;13742;49.306;8.636;2023-02-18T02:28:48;101354.59;;;11.98;95.56
25944;BME280;13742;49.306;8.636;2023-02-18T02:32:44;101356.34;;;11.97;95.46
25944;BME280;13742;49.306;8.636;2023-02-18T02:35:43;101350.50;;;11.97;95.20
25944;BME280;13742;49.306;8.636;2023-02-18T02:38:39;101356.66;;;11.97;95.43
25944;BME280;13742;49.306;8.636;2023-02-18T02:40:42;101347.41;;;11.96;95.42
25944;BME280;13742;49.306;8.636;2023-02-18T02:42:39;101340.30;;;11.94;95.58
25944;BME280;13742;49.306;8.636;2023-02-18T02:44:45;101340.12;;;11.95;95.82
25944;BME280;13742;49.306;8.636;2023-02-18T02:45:43;101337.98;;;11.94;95.93
25944;BME280;13742;49.306;8.636;2023-02-18T02:46:42;101330.80;;;11.94;95.73
25944;BME280;13742;49.306;8.636;2023-02-18T02:47:40;101329.45;;;11.93;96.02
25944;BME280;13742;49.306;8.636;2023-02-18T02:51:41;101335.86;;;11.94;96.32
25944;BME280;13742;49.306;8.636;2023-02-18T02:52:38;101326.42;;;11.94;96.25
25944;BME280;13742;49.306;8.636;2023-02-18T02:53:39;101324.89;;;11.94;96.30
25944;BME280;13742;49.306;8.636;2023-02-18T02:54:37;101316.45;;;11.94;96.35
25944;BME280;13742;49.306;8.636;2023-02-18T02:55:37;101317.34;;;11.93;96.44
25944;BME280;13742;49.306;8.636;2023-02-18T02:56:37;101319.77;;;11.92;96.69
25944;BME280;13742;49.306;8.636;2023-02-18T02:57:41;101318.37;;;11.92;96.57
25944;BME280;13742;49.306;8.636;2023-02-18T02:58:37;101318.30;;;11.92;96.77
25944;BME280;13742;49.306;8.636;2023-02-18T02:59:38;101321.78;;;11.92;96.72
25944;BME280;13742;49.306;8.636;2023-02-18T03:00:44;101320.10;;;11.91;96.95
25944;BME280;13742;49.306;8.636;2023-02-18T03:11:46;101327.38;;;11.91;96.67
25944;BME280;13742;49.306;8.636;2023-02-18T03:12:44;101331.31;;;11.90;96.64
25944;BME280;13742;49.306;8.636;2023-02-18T03:13:44;101330.44;;;11.90;96.90
25944;BME280;13742;49.306;8.636;2023-02-18T03:14:48;101323.05;;;11.90;97.03
25944;BME280;13742;49.306;8.636;2023-02-18T03:17:40;101323.72;;;11.88;97.29
25944;BME280;13742;49.306;8.636;2023-02-18T03:18:38;101320.27;;;11.88;97.53
25944;BME280;13742;49.306;8.636;2023-02-18T03:19:38;101319.30;;;11.87;97.74
25944;BME280;13742;49.306;8.636;2023-02-18T03:20:42;101318.44;;;11.86;97.94
25944;BME280;13742;49.306;8.636;2023-02-18T03:21:39;101319.09;;;11.84;98.01
25944;BME280;13742;49.306;8.636;2023-02-18T03:22:38;101316.44;;;11.84;97.92
25944;BME280;13742;49.306;8.636;2023-02-18T03:23:38;101319.70;;;11.84;97.89
25944;BME280;13742;49.306;8.636;2023-02-18T03:24:38;101320.36;;;11.84;97.86
25944;BME280;13742;49.306;8.636;2023-02-18T03:25:37;101320.38;;;11.83;98.05
25944;BME280;13742;49.306;8.636;2023-02-18T03:26:39;101321.56;;;11.82;98.38
25944;BME280;13742;49.306;8.636;2023-02-18T03:27:39;101312.30;;;11.82;98.38
25944;BME280;13742;49.306;8.636;2023-02-18T03:28:37;101312.80;;;11.82;98.33
25944;BME280;13742;49.306;8.636;2023-02-18T03:29:37;101319.06;;;11.83;98.48
25944;BME280;13742;49.306;8.636;2023-02-18T03:31:37;101318.30;;;11.82;98.40
25944;BME280;13742;49.306;8.636;2023-02-18T03:32:37;101312.13;;;11.82;98.51
25944;BME280;13742;49.306;8.636;2023-02-18T03:33:39;101315.59;;;11.82;98.58
25944;BME280;13742;49.306;8.636;2023-02-18T03:34:39;101314.96;;;11.81;98.52
25944;BME280;13742;49.306;8.636;2023-02-18T03:35:37;101310.49;;;11.81;98.49
25944;BME280;13742;49.306;8.636;2023-02-18T03:36:37;101304.52;;;11.80;98.54
25944;BME280;13742;49.306;8.636;2023-02-18T03:37:38;101303.52;;;11.80;98.36
25944;BME280;13742;49.306;8.636;2023-02-18T03:38:39;101304.20;;;11.81;98.12
25944;BME280;13742;49.306;8.636;2023-02-18T03:39:38;101303.51;;;11.80;98.08
25944;BME280;13742;49.306;8.636;2023-02-18T03:40:37;101304.83;;;11.80;98.10
25944;BME280;13742;49.306;8.636;2023-02-18T03:41:37;101305.75;;;11.79;97.96
25944;BME280;13742;49.306;8.636;2023-02-18T03:42:37;101306.71;;;11.80;97.90
25944;BME280;13742;49.306;8.636;2023-02-18T03:43:38;101304.25;;;11.79;97.89
25944;BME280;13742;49.306;8.636;2023-02-18T03:44:37;101306.43;;;11.79;97.79
25944;BME280;13742;49.306;8.636;2023-02-18T03:45:37;101305.27;;;11.79;97.76
25944;BME280;13742;49.306;8.636;2023-02-18T03:46:38;101304.00;;;11.78;97.65
25944;BME280;13742;49.306;8.636;2023-02-18T03:47:37;101303.20;;;11.79;97.54
25944;BME280;13742;49.306;8.636;2023-02-18T03:48:37;101299.86;;;11.78;97.39
25944;BME280;13742;49.306;8.636;2023-02-18T03:49:37;101298.05;;;11.78;97.33
25944;BME280;13742;49.306;8.636;2023-02-18T03:50:37;101296.50;;;11.79;97.34
25944;BME280;13742;49.306;8.636;2023-02-18T03:51:37;101305.16;;;11.80;97.28
25944;BME280;13742;49.306;8.636;2023-02-18T03:52:37;101303.73;;;11.80;97.15
25944;BME280;13742;49.306;8.636;2023-02-18T03:53:37;101303.23;;;11.80;97.20
25944;BME280;13742;49.306;8.636;2023-02-18T03:54:37;101308.47;;;11.80;97.32
25944;BME280;13742;49.306;8.636;2023-02-18T03:55:37;101301.77;;;11.79;97.37
25944;BME280;13742;49.306;8.636;2023-02-18T03:56:37;101301.28;;;11.79;97.14
25944;BME280;13742;49.306;8.636;2023-02-18T03:57:37;101306.69;;;11.81;97.21
25944;BME280;13742;49.306;8.636;2023-02-18T03:58:37;101307.09;;;11.80;97.05
25944;BME280;13742;49.306;8.636;2023-02-18T03:59:37;101308.86;;;11.80;97.19
25944;BME280;13742;49.306;8.636;2023-02-18T04:00:37;101308.89;;;11.81;97.19
25944;BME280;13742;49.306;8.636;2023-02-18T04:01:37;101313.20;;;11.81;97.08
25944;BME280;13742;49.306;8.636;2023-02-18T04:02:37;101313.03;;;11.81;97.08
25944;BME280;13742;49.306;8.636;2023-02-18T04:03:37;101315.79;;;11.81;97.06
25944;BME280;13742;49.306;8.636;2023-02-18T04:04:37;101306.38;;;11.80;97.13
25944;BME280;13742;49.306;8.636;2023-02-18T04:05:37;101309.66;;;11.79;96.97
25944;BME280;13742;49.306;8.636;2023-02-18T04:06:37;101306.31;;;11.78;97.03
25944;BME280;13742;49.306;8.636;2023-02-18T04:07:37;101308.85;;;11.78;97.08
25944;BME280;13742;49.306;8.636;2023-02-18T04:08:37;101311.31;;;11.78;97.08
25944;BME280;13742;49.306;8.636;2023-02-18T04:09:37;101303.66;;;11.76;97.05
25944;BME280;13742;49.306;8.636;2023-02-18T04:10:37;101310.03;;;11.77;96.99
25944;BME280;13742;49.306;8.636;2023-02-18T04:11:38;101308.77;;;11.77;97.03
25944;BME280;13742;49.306;8.636;2023-02-18T04:12:37;101310.89;;;11.78;96.94
25944;BME280;13742;49.306;8.636;2023-02-18T04:13:37;101306.39;;;11.77;96.86
25944;BME280;13742;49.306;8.636;2023-02-18T04:14:37;101307.89;;;11.77;96.70
25944;BME280;13742;49.306;8.636;2023-02-18T04:15:37;101307.55;;;11.77;96.62
25944;BME280;13742;49.306;8.636;2023-02-18T04:16:37;101307.00;;;11.77;96.52
25944;BME280;13742;49.306;8.636;2023-02-18T04:17:37;101310.98;;;11.79;96.59
25944;BME280;13742;49.306;8.636;2023-02-18T04:18:37;101310.23;;;11.79;96.56
25944;BME280;13742;49.306;8.636;2023-02-18T04:19:37;101307.03;;;11.78;96.60
25944;BME280;13742;49.306;8.636;2023-02-18T04:20:37;101311.64;;;11.78;96.54
25944;BME280;13742;49.306;8.636;2023-02-18T04:21:37;101311.80;;;11.79;96.47
25944;BME280;13742;49.306;8.636;2023-02-18T04:22:37;101315.75;;;11.78;96.29
25944;BME280;13742;49.306;8.636;2023-02-18T04:23:37;101315.86;;;11.78;96.40
25944;BME280;13742;49.306;8.636;2023-02-18T04:24:37;101319.17;;;11.79;96.51
25944;BME280;13742;49.306;8.636;2023-02-18T04:25:37;101317.34;;;11.77;96.45
25944;BME280;13742;49.306;8.636;2023-02-18T04:26:37;101315.73;;;11.76;96.49
25944;BME280;13742;49.306;8.636;2023-02-18T04:27:37;101315.59;;;11.77;96.53
25944;BME280;13742;49.306;8.636;2023-02-18T04:28:37;101318.66;;;11.77;96.60
25944;BME280;13742;49.306;8.636;2023-02-18T04:29:37;101320.87;;;11.76;96.48
25944;BME280;13742;49.306;8.636;2023-02-18T04:30:37;101319.15;;;11.76;96.52
25944;BME280;13742;49.306;8.636;2023-02-18T04:31:37;101324.03;;;11.76;96.56
25944;BME280;13742;49.306;8.636;2023-02-18T04:32:37;101323.78;;;11.76;96.53
25944;BME280;13742;49.306;8.636;2023-02-18T04:33:37;101320.72;;;11.75;96.50
25944;BME280;13742;49.306;8.636;2023-02-18T04:34:37;101319.67;;;11.75;96.53
25944;BME280;13742;49.306;8.636;2023-02-18T04:35:39;101322.70;;;11.75;96.60
25944;BME280;13742;49.306;8.636;2023-02-18T04:36:37;101314.27;;;11.75;96.55
25944;BME280;13742;49.306;8.636;2023-02-18T04:37:37;101313.30;;;11.74;96.55
25944;BME280;13742;49.306;8.636;2023-02-18T04:38:37;101312.52;;;11.73;96.64
25944;BME280;13742;49.306;8.636;2023-02-18T04:39:37;101310.09;;;11.73;96.71
25944;BME280;13742;49.306;8.636;2023-02-18T04:40:37;101311.19;;;11.72;96.82
25944;BME280;13742;49.306;8.636;2023-02-18T04:41:37;101309.95;;;11.72;96.76
25944;BME280;13742;49.306;8.636;2023-02-18T04:42:37;101311.81;;;11.72;96.65
25944;BME280;13742;49.306;8.636;2023-02-18T04:43:37;101313.69;;;11.71;96.66
25944;BME280;13742;49.306;8.636;2023-02-18T04:44:37;101312.11;;;11.70;96.66
25944;BME280;13742;49.306;8.636;2023-02-18T04:45:37;101314.78;;;11.70;96.63
25944;BME280;13742;49.306;8.636;2023-02-18T04:46:37;101313.94;;;11.70;96.79
25944;BME280;13742;49.306;8.636;2023-02-18T04:47:37;101311.70;;;11.70;96.78
25944;BME280;13742;49.306;8.636;2023-02-18T04:48:37;101315.03;;;11.71;96.90
25944;BME280;13742;49.306;8.636;2023-02-18T04:49:37;101306.91;;;11.70;96.91
25944;BME280;13742;49.306;8.636;2023-02-18T04:50:37;101308.49;;;11.70;96.94
25944;BME280;13742;49.306;8.636;2023-02-18T04:51:37;101305.92;;;11.69;96.88
25944;BME280;13742;49.306;8.636;2023-02-18T04:52:37;101305.07;;;11.68;96.85
25944;BME280;13742;49.306;8.636;2023-02-18T04:53:37;101304.48;;;11.67;97.03
25944;BME280;13742;49.306;8.636;2023-02-18T04:54:37;101306.28;;;11.68;96.97
25944;BME280;13742;49.306;8.636;2023-02-18T04:55:37;101302.50;;;11.67;97.03
25944;BME280;13742;49.306;8.636;2023-02-18T04:56:37;101302.91;;;11.67;97.01
25944;BME280;13742;49.306;8.636;2023-02-18T04:57:37;101304.06;;;11.66;96.97
25944;BME280;13742;49.306;8.636;2023-02-18T04:58:37;101302.56;;;11.65;97.11
25944;BME280;13742;49.306;8.636;2023-02-18T04:59:37;101304.05;;;11.65;97.09
25944;BME280;13742;49.306;8.636;2023-02-18T05:00:37;101308.11;;;11.65;97.13
25944;BME280;13742;49.306;8.636;2023-02-18T05:01:37;101300.52;;;11.64;97.16
25944;BME280;13742;49.306;8.636;2023-02-18T05:02:37;101305.83;;;11.63;97.12
25944;BME280;13742;49.306;8.636;2023-02-18T05:03:37;101302.38;;;11.62;97.23
25944;BME280;13742;49.306;8.636;2023-02-18T05:04:37;101313.80;;;11.62;97.41
25944;BME280;13742;49.306;8.636;2023-02-18T05:05:37;101309.91;;;11.61;97.56
25944;BME280;13742;49.306;8.636;2023-02-18T05:06:38;101312.77;;;11.61;97.51
25944;BME280;13742;49.306;8.636;2023-02-18T05:07:37;101309.16;;;11.60;97.47
25944;BME280;13742;49.306;8.636;2023-02-18T05:08:37;101310.64;;;11.60;97.69
25944;BME280;13742;49.306;8.636;2023-02-18T05:09:37;101307.95;;;11.59;97.69
25944;BME280;13742;49.306;8.636;2023-02-18T05:10:37;101308.97;;;11.58;97.82
25944;BME280;13742;49.306;8.636;2023-02-18T05:11:37;101304.80;;;11.57;97.75
25944;BME280;13742;49.306;8.636;2023-02-18T05:12:37;101306.67;;;11.57;97.87
25944;BME280;13742;49.306;8.636;2023-02-18T05:13:37;101301.98;;;11.55;97.97
25944;BME280;13742;49.306;8.636;2023-02-18T05:14:37;101300.28;;;11.54;98.10
25944;BME280;13742;49.306;8.636;2023-02-18T05:15:37;101301.33;;;11.53;98.15
25944;BME280;13742;49.306;8.636;2023-02-18T05:16:37;101295.75;;;11.53;98.14
25944;BME280;13742;49.306;8.636;2023-02-18T05:17:37;101293.73;;;11.52;98.25
25944;BME280;13742;49.306;8.636;2023-02-18T05:18:37;101293.19;;;11.52;98.36
25944;BME280;13742;49.306;8.636;2023-02-18T05:19:37;101292.44;;;11.51;98.33
25944;BME280;13742;49.306;8.636;2023-02-18T05:20:37;101287.69;;;11.51;98.44
25944;BME280;13742;49.306;8.636;2023-02-18T05:21:37;101286.45;;;11.51;98.42
25944;BME280;13742;49.306;8.636;2023-02-18T05:22:37;101290.00;;;11.50;98.57
25944;BME280;13742;49.306;8.636;2023-02-18T05:23:37;101288.83;;;11.49;98.60
25944;BME280;13742;49.306;8.636;2023-02-18T05:24:37;101291.23;;;11.49;98.60
25944;BME280;13742;49.306;8.636;2023-02-18T05:25:37;101291.06;;;11.49;98.60
25944;BME280;13742;49.306;8.636;2023-02-18T05:26:37;101289.70;;;11.47;98.71
25944;BME280;13742;49.306;8.636;2023-02-18T05:27:37;101291.88;;;11.48;98.73
25944;BME280;13742;49.306;8.636;2023-02-18T05:28:37;101288.45;;;11.46;98.67
25944;BME280;13742;49.306;8.636;2023-02-18T05:29:37;101288.91;;;11.47;98.75
25944;BME280;13742;49.306;8.636;2023-02-18T05:30:37;101288.67;;;11.46;98.84
25944;BME280;13742;49.306;8.636;2023-02-18T05:31:37;101288.34;;;11.45;98.70
25944;BME280;13742;49.306;8.636;2023-02-18T05:32:37;101291.91;;;11.46;98.82
25944;BME280;13742;49.306;8.636;2023-02-18T05:33:37;101291.56;;;11.45;98.71
25944;BME280;13742;49.306;8.636;2023-02-18T05:34:37;101286.27;;;11.44;98.83
25944;BME280;13742;49.306;8.636;2023-02-18T05:35:37;101286.13;;;11.44;98.78
25944;BME280;13742;49.306;8.636;2023-02-18T05:36:37;101286.44;;;11.44;98.50
25944;BME280;13742;49.306;8.636;2023-02-18T05:37:37;101287.17;;;11.44;98.61
25944;BME280;13742;49.306;8.636;2023-02-18T05:38:37;101285.59;;;11.43;98.75
25944;BME280;13742;49.306;8.636;2023-02-18T05:39:37;101284.52;;;11.42;98.83
25944;BME280;13742;49.306;8.636;2023-02-18T05:40:37;101293.23;;;11.42;98.83
25944;BME280;13742;49.306;8.636;2023-02-18T05:41:37;101288.23;;;11.42;98.88
25944;BME280;13742;49.306;8.636;2023-02-18T05:42:37;101288.41;;;11.42;99.06
25944;BME280;13742;49.306;8.636;2023-02-18T05:43:42;101287.39;;;11.43;98.92
25944;BME280;13742;49.306;8.636;2023-02-18T05:44:37;101287.41;;;11.42;98.84
25944;BME280;13742;49.306;8.636;2023-02-18T05:45:37;101285.84;;;11.42;99.05
25944;BME280;13742;49.306;8.636;2023-02-18T05:46:37;101286.33;;;11.41;98.83
25944;BME280;13742;49.306;8.636;2023-02-18T05:47:37;101289.83;;;11.41;99.02
25944;BME280;13742;49.306;8.636;2023-02-18T05:48:37;101286.91;;;11.42;99.14
25944;BME280;13742;49.306;8.636;2023-02-18T05:49:37;101286.14;;;11.42;98.99
25944;BME280;13742;49.306;8.636;2023-02-18T05:50:37;101290.88;;;11.41;99.07
25944;BME280;13742;49.306;8.636;2023-02-18T05:51:37;101293.09;;;11.42;99.20
25944;BME280;13742;49.306;8.636;2023-02-18T05:52:37;101291.62;;;11.41;99.10
25944;BME280;13742;49.306;8.636;2023-02-18T05:53:37;101289.85;;;11.41;99.12